createdAt,value
2023-01-13T00:00:17.181Z,79.45
2023-01-13T00:03:25.903Z,79.47
2023-01-13T00:06:59.785Z,79.54
2023-01-13T00:11:18.193Z,79.50
2023-01-13T00:15:48.079Z,79.42
2023-01-13T00:26:53.748Z,79.60
2023-01-13T00:30:02.901Z,79.58
2023-01-13T00:33:40.013Z,79.66
2023-01-13T00:37:17.747Z,79.54
2023-01-13T00:40:51.463Z,79.60
2023-01-13T00:44:25.215Z,79.75
2023-01-13T00:47:54.825Z,80.07
2023-01-13T00:51:30.836Z,80.15
2023-01-13T00:54:57.881Z,80.22
2023-01-13T00:59:15.957Z,80.17
2023-01-13T01:03:45.666Z,80.24
2023-01-13T01:08:15.344Z,80.54
2023-01-13T01:12:45.076Z,80.65
2023-01-13T01:16:26.662Z,80.66
2023-01-13T01:20:34.745Z,80.72
2023-01-13T01:24:01.545Z,80.55
2023-01-13T01:28:31.140Z,80.45
2023-01-13T01:35:15.775Z,79.98
2023-01-13T01:42:13.795Z,79.51
2023-01-13T01:45:52.723Z,79.38
2023-01-13T01:49:28.871Z,79.25
2023-01-13T01:57:19.418Z,79.34
2023-01-13T02:01:49.096Z,79.38
2023-01-13T02:05:34.387Z,79.27
2023-01-13T02:09:52.897Z,79.40
2023-01-13T02:14:22.591Z,79.42
2023-01-13T02:18:53.323Z,79.57
2023-01-13T02:23:41.742Z,79.60
2023-01-13T02:27:24.448Z,79.36
2023-01-13T02:30:41.775Z,79.13
2023-01-13T02:33:59.840Z,79.03
2023-01-13T02:37:29.555Z,78.88
2023-01-13T02:41:05.779Z,78.75
2023-01-13T02:44:35.685Z,78.61
2023-01-13T02:48:09.499Z,78.18
2023-01-13T02:51:41.620Z,77.90
2023-01-13T02:55:09.493Z,77.84
2023-01-13T02:58:40.987Z,78.83
2023-01-13T03:02:14.485Z,79.63
2023-01-13T03:05:47.435Z,80.13
2023-01-13T03:09:17.333Z,80.09
2023-01-13T03:13:05.767Z,80.02
2023-01-13T03:17:39.718Z,80.00
2023-01-13T03:22:13.450Z,80.03
2023-01-13T03:26:48.976Z,79.81
2023-01-13T03:33:38.716Z,79.56
2023-01-13T03:38:08.284Z,79.62
2023-01-13T03:46:02.543Z,79.79
2023-01-13T03:50:33.629Z,79.91
2023-01-13T03:54:03.560Z,79.89
2023-01-13T03:57:39.686Z,79.79
2023-01-13T04:01:12.859Z,79.62
2023-01-13T04:05:16.320Z,79.62
2023-01-13T04:08:50.637Z,79.61
2023-01-13T04:12:23.644Z,79.68
2023-01-13T04:16:44.731Z,79.66
2023-01-13T04:24:29.439Z,79.48
2023-01-13T04:35:25.595Z,79.16
2023-01-13T04:38:58.773Z,78.86
2023-01-13T04:43:17.668Z,78.88
2023-01-13T04:47:47.205Z,78.90
2023-01-13T04:52:17.041Z,78.81
2023-01-13T04:56:46.668Z,78.82
2023-01-13T05:00:30.352Z,78.80
2023-01-13T05:04:28.863Z,78.69
2023-01-13T05:07:57.369Z,78.60
2023-01-13T05:11:27.662Z,78.36
2023-01-13T05:15:01.624Z,78.27
2023-01-13T05:18:33.497Z,78.11
2023-01-13T05:22:07.527Z,77.94
2023-01-13T05:25:44.008Z,77.79
2023-01-13T05:29:13.065Z,77.63
2023-01-13T05:32:49.750Z,77.60
2023-01-13T05:37:09.673Z,77.38
2023-01-13T05:48:04.588Z,77.58
2023-01-13T05:51:34.583Z,77.61
2023-01-13T05:55:04.817Z,77.67
2023-01-13T05:58:32.251Z,77.83
2023-01-13T06:01:54.782Z,77.92
2023-01-13T06:04:23.428Z,77.87
2023-01-13T06:06:52.175Z,77.90
2023-01-13T06:09:23.056Z,77.86
2023-01-13T06:11:51.805Z,77.80
2023-01-13T06:14:20.514Z,77.65
2023-01-13T06:16:49.273Z,77.60
2023-01-13T06:19:17.939Z,77.40
2023-01-13T06:21:46.925Z,77.42
2023-01-13T06:24:15.773Z,77.47
2023-01-13T06:26:44.637Z,77.50
2023-01-13T06:29:15.398Z,77.40
2023-01-13T06:31:44.239Z,77.44
2023-01-13T06:34:15.271Z,77.33
2023-01-13T06:36:52.487Z,77.26
2023-01-13T06:39:25.731Z,77.29
2023-01-13T06:42:13.752Z,77.26
2023-01-13T06:44:43.483Z,77.20
2023-01-13T06:47:12.196Z,77.25
2023-01-13T06:49:40.928Z,77.16
2023-01-13T06:52:09.674Z,77.15
2023-01-13T06:54:38.329Z,77.14
2023-01-13T06:57:07.005Z,77.07
2023-01-13T06:59:35.751Z,77.04
2023-01-13T07:02:04.771Z,76.96
2023-01-13T07:04:33.611Z,77.00
2023-01-13T07:07:02.319Z,77.10
2023-01-13T07:09:31.047Z,77.08
2023-01-13T07:11:59.720Z,77.08
2023-01-13T07:14:48.617Z,77.11
2023-01-13T07:17:29.504Z,77.19
2023-01-13T07:20:00.581Z,77.17
2023-01-13T07:22:29.255Z,77.20
2023-01-13T07:25:01.663Z,77.30
2023-01-13T07:27:30.992Z,77.12
2023-01-13T07:29:59.907Z,77.10
2023-01-13T07:32:29.396Z,77.09
2023-01-13T07:35:05.062Z,77.16
2023-01-13T07:37:39.628Z,77.11
2023-01-13T07:40:10.240Z,77.04
2023-01-13T07:42:58.232Z,76.94
2023-01-13T07:45:27.447Z,76.88
2023-01-13T07:47:56.620Z,76.92
2023-01-13T07:50:25.617Z,76.80
2023-01-13T07:52:58.753Z,76.93
2023-01-13T07:55:27.537Z,77.11
2023-01-13T07:57:56.313Z,76.97
2023-01-13T08:00:25.197Z,77.02
2023-01-13T08:02:53.894Z,76.96
2023-01-13T08:05:24.502Z,76.89
2023-01-13T08:07:53.945Z,76.82
2023-01-13T08:10:27.017Z,76.80
2023-01-13T08:13:14.615Z,76.75
2023-01-13T08:15:44.353Z,76.68
2023-01-13T08:18:15.167Z,76.69
2023-01-13T08:20:44.428Z,76.68
2023-01-13T08:23:13.236Z,76.72
2023-01-13T08:25:42.169Z,76.54
2023-01-13T08:28:11.733Z,76.55
2023-01-13T08:30:40.825Z,76.76
2023-01-13T08:33:12.422Z,76.75
2023-01-13T08:35:42.815Z,76.77
2023-01-13T08:38:11.828Z,76.85
2023-01-13T08:40:41.288Z,76.65
2023-01-13T08:43:10.017Z,76.46
2023-01-13T08:45:38.768Z,76.58
2023-01-13T08:48:12.726Z,76.60
2023-01-13T08:50:41.650Z,76.50
2023-01-13T08:53:10.831Z,76.41
2023-01-13T08:55:41.252Z,76.35
2023-01-13T08:58:15.850Z,76.30
2023-01-13T09:00:45.304Z,76.25
2023-01-13T09:03:13.943Z,76.71
2023-01-13T09:05:42.648Z,77.09
2023-01-13T09:08:11.394Z,77.23
2023-01-13T09:10:40.846Z,77.30
2023-01-13T09:13:13.985Z,77.43
2023-01-13T09:15:46.265Z,77.29
2023-01-13T09:18:15.267Z,77.11
2023-01-13T09:20:45.010Z,77.11
2023-01-13T09:23:13.695Z,77.13
2023-01-13T09:25:42.461Z,77.20
2023-01-13T09:28:11.082Z,77.05
2023-01-13T09:30:39.832Z,76.97
2023-01-13T09:33:27.367Z,76.94
2023-01-13T09:35:59.607Z,77.26
2023-01-13T09:38:28.530Z,77.22
2023-01-13T09:40:57.310Z,77.73
2023-01-13T09:43:56.464Z,77.95
2023-01-13T09:46:47.689Z,78.40
2023-01-13T09:49:25.122Z,78.58
2023-01-13T09:52:16.254Z,78.34
2023-01-13T09:54:54.234Z,78.25
2023-01-13T09:57:22.939Z,78.04
2023-01-13T09:59:51.760Z,77.80
2023-01-13T10:02:20.465Z,77.42
2023-01-13T10:05:23.500Z,77.27
2023-01-13T10:08:00.086Z,76.77
2023-01-13T10:10:43.385Z,76.45
2023-01-13T10:13:38.514Z,75.98
2023-01-13T10:16:28.331Z,75.92
2023-01-13T10:19:15.500Z,75.61
2023-01-13T10:22:09.519Z,75.80
2023-01-13T10:25:10.260Z,75.41
2023-01-13T10:27:43.457Z,75.34
2023-01-13T10:30:34.237Z,75.14
2023-01-13T10:33:10.847Z,74.71
2023-01-13T10:35:58.273Z,74.38
2023-01-13T10:38:42.208Z,74.17
2023-01-13T10:41:16.712Z,74.11
2023-01-13T10:43:57.423Z,74.23
2023-01-13T10:46:26.951Z,73.97
2023-01-13T10:48:57.799Z,73.73
2023-01-13T10:51:26.484Z,73.48
2023-01-13T10:54:24.531Z,73.74
2023-01-13T10:57:20.229Z,73.95
2023-01-13T10:59:51.403Z,73.97
2023-01-13T11:02:36.350Z,74.12
2023-01-13T11:05:24.979Z,74.20
2023-01-13T11:07:56.661Z,74.11
2023-01-13T11:10:29.620Z,73.90
2023-01-13T11:13:05.681Z,73.59
2023-01-13T11:16:05.746Z,73.87
2023-01-13T11:19:02.855Z,73.89
2023-01-13T11:22:06.623Z,73.71
2023-01-13T11:25:03.680Z,73.33
2023-01-13T11:27:52.720Z,73.14
2023-01-13T11:30:59.201Z,72.68
2023-01-13T11:33:53.845Z,72.70
2023-01-13T11:36:32.019Z,72.28
2023-01-13T11:39:30.146Z,72.51
2023-01-13T11:42:21.598Z,72.80
2023-01-13T11:45:10.770Z,72.62
2023-01-13T11:47:39.845Z,72.22
2023-01-13T11:50:43.423Z,72.69
2023-01-13T11:53:21.661Z,72.82
2023-01-13T11:55:55.596Z,72.36
2023-01-13T11:59:14.679Z,72.51
2023-01-13T12:02:11.292Z,72.63
2023-01-13T12:05:05.534Z,72.98
2023-01-13T12:07:54.063Z,73.50
2023-01-13T12:10:24.380Z,73.62
2023-01-13T12:13:04.680Z,73.65
2023-01-13T12:15:56.478Z,73.38
2023-01-13T12:18:39.745Z,73.48
2023-01-13T12:21:33.309Z,73.42
2023-01-13T12:24:29.800Z,73.24
2023-01-13T12:27:26.383Z,73.17
2023-01-13T12:30:00.274Z,72.99
2023-01-13T12:32:40.720Z,72.85
2023-01-13T12:35:38.124Z,72.82
2023-01-13T12:38:23.358Z,72.64
2023-01-13T12:41:27.106Z,72.46
2023-01-13T12:44:16.519Z,71.91
2023-01-13T12:46:53.555Z,72.06
2023-01-13T12:49:34.299Z,71.73
2023-01-13T12:52:16.386Z,71.87
2023-01-13T12:54:45.025Z,72.14
2023-01-13T12:57:24.930Z,72.20
2023-01-13T13:00:13.781Z,71.82
2023-01-13T13:03:04.771Z,71.01
2023-01-13T13:05:49.297Z,70.98
2023-01-13T13:08:42.901Z,71.20
2023-01-13T13:11:32.819Z,71.11
2023-01-13T13:14:39.833Z,71.43
2023-01-13T13:17:20.527Z,71.89
2023-01-13T13:19:50.458Z,72.21
2023-01-13T13:22:22.528Z,72.52
2023-01-13T13:25:00.107Z,72.69
2023-01-13T13:27:38.041Z,72.90
2023-01-13T13:30:34.141Z,73.19
2023-01-13T13:33:56.290Z,73.43
2023-01-13T13:36:56.044Z,73.78
2023-01-13T13:39:48.803Z,74.25
2023-01-13T13:42:45.241Z,74.79
2023-01-13T13:45:43.267Z,74.83
2023-01-13T13:48:30.882Z,75.13
2023-01-13T13:51:31.921Z,75.75
2023-01-13T13:54:03.015Z,76.62
2023-01-13T13:56:43.760Z,77.49
2023-01-13T13:59:20.791Z,78.40
2023-01-13T14:02:04.032Z,79.91
2023-01-13T14:04:39.494Z,81.05
2023-01-13T14:07:22.990Z,81.83
2023-01-13T14:09:56.922Z,82.48
2023-01-13T14:12:28.332Z,82.59
2023-01-13T14:15:11.955Z,82.99
2023-01-13T14:17:42.893Z,83.36
2023-01-13T14:20:18.996Z,83.83
2023-01-13T14:22:54.235Z,84.16
2023-01-13T14:25:40.005Z,84.43
2023-01-13T14:28:44.907Z,84.68
2023-01-13T14:31:24.246Z,84.90
2023-01-13T14:34:01.626Z,85.04
2023-01-13T14:36:33.446Z,85.00
2023-01-13T14:39:05.153Z,84.92
2023-01-13T14:41:47.439Z,84.78
2023-01-13T14:44:30.135Z,84.78
2023-01-13T14:47:23.981Z,85.05
2023-01-13T14:50:05.808Z,85.38
2023-01-13T14:52:48.373Z,85.24
2023-01-13T14:55:40.683Z,85.32
2023-01-13T14:58:21.441Z,85.24
2023-01-13T15:00:53.097Z,85.27
2023-01-13T15:03:22.263Z,85.44
2023-01-13T15:05:55.846Z,85.46
2023-01-13T15:08:32.326Z,85.36
2023-01-13T15:11:21.842Z,85.30
2023-01-13T15:14:10.527Z,85.43
2023-01-13T15:16:41.798Z,85.44
2023-01-13T15:19:12.029Z,85.51
2023-01-13T15:21:42.511Z,86.29
2023-01-13T15:24:11.842Z,86.68
2023-01-13T15:26:43.732Z,87.37
2023-01-13T15:29:18.022Z,87.11
2023-01-13T15:31:46.742Z,86.49
2023-01-13T15:34:15.701Z,86.18
2023-01-13T15:36:45.083Z,86.32
2023-01-13T15:39:14.132Z,86.00
2023-01-13T15:42:01.203Z,85.53
2023-01-13T15:44:48.202Z,85.34
2023-01-13T15:47:17.421Z,85.41
2023-01-13T15:49:47.310Z,85.43
2023-01-13T15:52:22.407Z,85.31
2023-01-13T15:54:53.237Z,85.33
2023-01-13T15:57:26.669Z,85.49
2023-01-13T16:00:01.977Z,85.59
2023-01-13T16:02:31.520Z,85.83
2023-01-13T16:05:00.661Z,86.07
2023-01-13T16:07:32.936Z,86.27
2023-01-13T16:10:03.813Z,86.51
2023-01-13T16:12:34.359Z,86.57
2023-01-13T16:15:03.233Z,86.88
2023-01-13T16:17:35.803Z,87.11
2023-01-13T16:20:05.065Z,87.25
2023-01-13T16:22:33.740Z,87.31
2023-01-13T16:25:02.768Z,86.91
2023-01-13T16:27:58.073Z,86.86
2023-01-13T16:30:36.730Z,86.98
2023-01-13T16:33:10.494Z,87.14
2023-01-13T16:36:09.446Z,87.29
2023-01-13T16:38:28.010Z,87.44
2023-01-13T16:40:57.925Z,87.45
2023-01-13T16:43:28.196Z,87.57
2023-01-13T16:45:56.951Z,87.54
2023-01-13T16:48:25.907Z,87.32
2023-01-13T16:50:55.009Z,87.23
2023-01-13T16:53:23.949Z,86.65
2023-01-13T16:55:53.209Z,86.39
2023-01-13T16:58:22.196Z,86.21
2023-01-13T17:00:54.933Z,86.15
2023-01-13T17:03:25.186Z,85.95
2023-01-13T17:06:03.996Z,85.55
2023-01-13T17:08:32.796Z,84.65
2023-01-13T17:11:01.741Z,84.22
2023-01-13T17:13:30.459Z,84.18
2023-01-13T17:15:59.121Z,84.16
2023-01-13T17:18:32.065Z,84.20
2023-01-13T17:21:01.740Z,84.29
2023-01-13T17:23:31.879Z,84.54
2023-01-13T17:26:00.942Z,84.79
2023-01-13T17:28:29.943Z,84.78
2023-01-13T17:30:58.897Z,84.47
2023-01-13T17:33:27.741Z,84.86
2023-01-13T17:35:56.547Z,84.87
2023-01-13T17:38:25.343Z,85.23
2023-01-13T17:40:54.090Z,85.49
2023-01-13T17:43:22.807Z,85.86
2023-01-13T17:45:52.852Z,85.62
2023-01-13T17:48:21.503Z,85.83
2023-01-13T17:50:51.659Z,85.99
2023-01-13T17:53:21.304Z,86.18
2023-01-13T17:55:55.763Z,86.28
2023-01-13T17:58:24.715Z,86.31
2023-01-13T18:00:53.643Z,86.23
2023-01-13T18:03:22.402Z,86.11
2023-01-13T18:05:51.405Z,85.95
2023-01-13T18:08:21.896Z,85.92
2023-01-13T18:10:53.144Z,85.76
2023-01-13T18:13:21.892Z,85.88
2023-01-13T18:15:50.531Z,85.51
2023-01-13T18:18:19.375Z,85.46
2023-01-13T18:21:17.649Z,85.42
2023-01-13T18:24:05.357Z,85.03
2023-01-13T18:26:52.842Z,84.47
2023-01-13T18:29:22.218Z,84.20
2023-01-13T18:31:53.350Z,83.77
2023-01-13T18:34:23.117Z,83.41
2023-01-13T18:36:54.183Z,83.18
2023-01-13T18:39:27.664Z,82.13
2023-01-13T18:42:21.207Z,81.10
2023-01-13T18:44:50.118Z,80.70
2023-01-13T18:47:19.497Z,80.91
2023-01-13T18:49:49.236Z,81.17
2023-01-13T18:52:18.006Z,81.73
2023-01-13T18:54:47.899Z,82.04
2023-01-13T18:57:17.497Z,81.93
2023-01-13T18:59:46.300Z,81.81
2023-01-13T19:02:21.864Z,81.87
2023-01-13T19:04:50.754Z,82.13
2023-01-13T19:07:23.542Z,82.33
2023-01-13T19:10:01.797Z,82.50
2023-01-13T19:12:34.398Z,82.54
2023-01-13T19:15:05.302Z,82.60
2023-01-13T19:17:36.270Z,82.70
2023-01-13T19:20:05.668Z,82.84
2023-01-13T19:22:35.684Z,83.02
2023-01-13T19:25:06.290Z,83.08
2023-01-13T19:27:35.009Z,83.13
2023-01-13T19:30:04.267Z,83.06
2023-01-13T19:32:33.769Z,82.90
2023-01-13T19:35:02.582Z,82.82
2023-01-13T19:37:33.836Z,82.96
2023-01-13T19:40:07.043Z,83.09
2023-01-13T19:42:55.309Z,83.24
2023-01-13T19:45:27.327Z,83.40
2023-01-13T19:47:58.279Z,83.54
2023-01-13T19:50:27.069Z,83.61
2023-01-13T19:52:55.741Z,83.72
2023-01-13T19:55:24.701Z,83.84
2023-01-13T19:57:53.421Z,83.97
2023-01-13T20:00:22.369Z,84.08
2023-01-13T20:02:53.495Z,84.27
2023-01-13T20:05:26.149Z,84.43
2023-01-13T20:07:55.019Z,84.63
2023-01-13T20:10:25.053Z,84.69
2023-01-13T20:12:53.702Z,84.65
2023-01-13T20:15:22.484Z,84.64
2023-01-13T20:17:51.222Z,84.70
2023-01-13T20:20:22.545Z,84.69
2023-01-13T20:22:51.212Z,84.75
2023-01-13T20:25:20.784Z,84.78
2023-01-13T20:27:49.742Z,84.80
2023-01-13T20:30:18.491Z,84.84
2023-01-13T20:32:47.243Z,84.92
2023-01-13T20:35:16.061Z,85.08
2023-01-13T20:37:45.009Z,85.22
2023-01-13T20:40:16.415Z,85.38
2023-01-13T20:42:45.550Z,85.36
2023-01-13T20:45:20.768Z,85.38
2023-01-13T20:47:50.824Z,85.64
2023-01-13T20:50:19.721Z,85.89
2023-01-13T20:52:48.862Z,86.09
2023-01-13T20:55:17.590Z,86.62
2023-01-13T20:57:49.250Z,86.65
2023-01-13T21:00:18.687Z,86.43
2023-01-13T21:02:47.404Z,86.23
2023-01-13T21:05:16.612Z,85.74
2023-01-13T21:07:45.505Z,85.22
2023-01-13T21:10:14.261Z,84.79
2023-01-13T21:13:01.784Z,84.39
2023-01-13T21:15:30.824Z,84.04
2023-01-13T21:18:18.052Z,83.68
2023-01-13T21:20:46.759Z,83.47
2023-01-13T21:23:15.579Z,83.27
2023-01-13T21:25:44.337Z,83.09
2023-01-13T21:28:14.024Z,82.86
2023-01-13T21:30:44.199Z,82.67
2023-01-13T21:33:14.638Z,82.67
2023-01-13T21:35:43.410Z,82.55
2023-01-13T21:38:12.427Z,82.40
2023-01-13T21:40:41.081Z,82.28
2023-01-13T21:43:31.837Z,82.02
2023-01-13T21:46:19.221Z,81.97
2023-01-13T21:48:47.959Z,81.82
2023-01-13T21:51:17.205Z,81.90
2023-01-13T21:53:45.758Z,81.97
2023-01-13T21:56:14.533Z,82.13
2023-01-13T21:58:43.447Z,82.31
2023-01-13T22:01:12.342Z,82.38
2023-01-13T22:04:00.692Z,82.35
2023-01-13T22:06:29.471Z,82.50
2023-01-13T22:09:01.550Z,82.57
2023-01-13T22:11:32.220Z,82.44
2023-01-13T22:14:07.344Z,82.40
2023-01-13T22:16:42.013Z,82.38
2023-01-13T22:19:11.736Z,82.27
2023-01-13T22:21:40.625Z,82.21
2023-01-13T22:24:10.210Z,82.03
2023-01-13T22:26:38.925Z,81.93
2023-01-13T22:29:07.581Z,81.90
2023-01-13T22:31:36.480Z,81.91
2023-01-13T22:34:05.307Z,81.91
2023-01-13T22:36:34.085Z,82.08
2023-01-13T22:39:03.068Z,82.16
2023-01-13T22:41:32.025Z,82.19
2023-01-13T22:44:00.786Z,82.14
2023-01-13T22:46:29.579Z,82.04
2023-01-13T22:48:58.250Z,82.00
2023-01-13T22:51:27.668Z,82.00
2023-01-13T22:53:56.951Z,82.07
2023-01-13T22:56:27.530Z,82.20
2023-01-13T22:59:02.202Z,82.36
2023-01-13T23:02:10.784Z,82.40
2023-01-13T23:05:51.172Z,82.32
2023-01-13T23:35:07.454Z,83.10
2023-01-13T23:42:26.837Z,83.20
2023-01-13T23:57:46.265Z,83.78
